createdAt,value
2019-04-10T00:00:06.518Z,536.7660
2019-04-10T00:00:14.737Z,537.6750
2019-04-10T00:00:23.093Z,537.9820
2019-04-10T00:00:31.462Z,536.1350
2019-04-10T00:00:39.447Z,535.6270
2019-04-10T00:00:47.894Z,535.8680
2019-04-10T00:00:57.183Z,536.0950
2019-04-10T00:01:08.920Z,534.4190
2019-04-10T00:01:17.469Z,534.5960
2019-04-10T00:01:25.750Z,533.3440
2019-04-10T00:01:34.124Z,533.7850
2019-04-10T00:01:42.584Z,533.0520
2019-04-10T00:01:50.994Z,532.2430
2019-04-10T00:01:59.462Z,530.8140
2019-04-10T00:02:07.444Z,527.8090
2019-04-10T00:02:15.584Z,524.1690
2019-04-10T00:02:23.792Z,522.1290
2019-04-10T00:02:31.442Z,522.3550
2019-04-10T00:02:39.790Z,523.3530
2019-04-10T00:02:48.053Z,522.4090
2019-04-10T00:02:56.436Z,522.5820
2019-04-10T00:03:04.424Z,522.4110
2019-04-10T00:03:24.028Z,522.9840
2019-04-10T00:03:32.407Z,525.5220
2019-04-10T00:03:40.259Z,528.4900
2019-04-10T00:03:50.391Z,528.9500
2019-04-10T00:03:58.667Z,529.1700
2019-04-10T00:04:07.142Z,528.8270
2019-04-10T00:04:16.333Z,530.1640
2019-04-10T00:04:23.446Z,531.7290
2019-04-10T00:04:31.557Z,533.3300
2019-04-10T00:04:39.439Z,534.5930
2019-04-10T00:04:47.476Z,535.3670
2019-04-10T00:04:55.797Z,535.8580
2019-04-10T00:05:03.485Z,534.2500
2019-04-10T00:05:11.752Z,532.1210
2019-04-10T00:05:20.037Z,531.7090
2019-04-10T00:05:28.458Z,531.1720
2019-04-10T00:05:36.471Z,532.9610
2019-04-10T00:05:44.569Z,534.7390
2019-04-10T00:05:52.442Z,536.1700
2019-04-10T00:06:00.508Z,537.4880
2019-04-10T00:06:08.793Z,537.5140
2019-04-10T00:06:17.892Z,537.0100
2019-04-10T00:06:26.439Z,534.1960
2019-04-10T00:06:34.460Z,533.2560
2019-04-10T00:06:42.445Z,533.4670
2019-04-10T00:06:50.440Z,532.2180
2019-04-10T00:07:10.443Z,531.0730
2019-04-10T00:07:15.193Z,529.8310
2019-04-10T00:07:25.666Z,527.5870
2019-04-10T00:07:33.452Z,527.8180
2019-04-10T00:07:41.709Z,526.5840
2019-04-10T00:07:50.015Z,524.7260
2019-04-10T00:07:58.446Z,525.3490
2019-04-10T00:08:06.496Z,524.8250
2019-04-10T00:08:14.420Z,523.9660
2019-04-10T00:08:22.426Z,522.3690
2019-04-10T00:08:30.444Z,520.6250
2019-04-10T00:08:38.716Z,520.1550
2019-04-10T00:08:46.448Z,519.9520
2019-04-10T00:08:54.694Z,520.2090
2019-04-10T00:09:01.459Z,520.2850
2019-04-10T00:09:10.559Z,520.1930
2019-04-10T00:09:18.997Z,521.7140
2019-04-10T00:09:27.444Z,523.6080
2019-04-10T00:09:35.431Z,527.6370
2019-04-10T00:09:43.452Z,530.2900
2019-04-10T00:09:51.710Z,531.2280
2019-04-10T00:09:59.454Z,530.6200
2019-04-10T00:10:07.735Z,529.4400
2019-04-10T00:10:15.966Z,529.2110
2019-04-10T00:10:24.670Z,529.1350
2019-04-10T00:10:32.417Z,526.4610
2019-04-10T00:10:40.456Z,524.8740
2019-04-10T00:10:48.446Z,524.4840
2019-04-10T00:10:56.469Z,525.5700
2019-04-10T00:11:04.725Z,526.0390
2019-04-10T00:11:12.433Z,525.4990
2019-04-10T00:11:20.707Z,525.2910
2019-04-10T00:11:29.011Z,523.8940
2019-04-10T00:11:37.476Z,524.2750
2019-04-10T00:11:45.424Z,525.0890
2019-04-10T00:11:53.529Z,528.0910
2019-04-10T00:12:01.433Z,531.5580
2019-04-10T00:12:09.523Z,535.6910
2019-04-10T00:12:17.721Z,539.5740
2019-04-10T00:12:25.502Z,542.0620
2019-04-10T00:12:33.824Z,543.2890
2019-04-10T00:12:42.299Z,542.7410
2019-04-10T00:12:50.454Z,539.5190
2019-04-10T00:12:58.439Z,538.0890
2019-04-10T00:13:06.738Z,537.5330
2019-04-10T00:13:14.483Z,536.8570
2019-04-10T00:13:22.618Z,535.8670
2019-04-10T00:13:30.962Z,536.4510
2019-04-10T00:13:39.675Z,536.5720
2019-04-10T00:13:47.436Z,537.5380
2019-04-10T00:13:55.331Z,538.4600
2019-04-10T00:14:03.428Z,539.1180
2019-04-10T00:14:12.348Z,539.7210
2019-04-10T00:14:20.554Z,539.7400
2019-04-10T00:14:28.447Z,539.5350
2019-04-10T00:14:36.675Z,540.3480
2019-04-10T00:14:44.958Z,540.8730
2019-04-10T00:14:53.622Z,541.9980
2019-04-10T00:15:01.449Z,542.3600
2019-04-10T00:15:09.428Z,541.3470
2019-04-10T00:15:18.416Z,540.0390
2019-04-10T00:15:26.447Z,537.6980
2019-04-10T00:15:34.740Z,537.7390
2019-04-10T00:15:42.453Z,539.5380
2019-04-10T00:15:50.820Z,542.0950
2019-04-10T00:15:57.451Z,543.3410
2019-04-10T00:16:05.662Z,543.3840
2019-04-10T00:16:13.935Z,543.8470
2019-04-10T00:16:22.330Z,541.9340
2019-04-10T00:16:30.440Z,543.8730
2019-04-10T00:16:38.430Z,544.6260
2019-04-10T00:16:46.685Z,544.6490
2019-04-10T00:16:54.416Z,544.4670
2019-04-10T00:17:02.705Z,546.3540
2019-04-10T00:17:11.104Z,546.2910
2019-04-10T00:17:19.427Z,546.6020
2019-04-10T00:17:27.426Z,546.2080
2019-04-10T00:17:35.450Z,543.2780
2019-04-10T00:17:43.457Z,544.6200
2019-04-10T00:17:51.546Z,546.4230
2019-04-10T00:17:59.821Z,548.3290
2019-04-10T00:18:07.492Z,546.5120
2019-04-10T00:18:15.885Z,543.8600
2019-04-10T00:18:24.462Z,542.8070
2019-04-10T00:18:32.446Z,543.0550
2019-04-10T00:18:40.459Z,542.7770
2019-04-10T00:18:48.520Z,541.7270
2019-04-10T00:18:56.450Z,539.9240
2019-04-10T00:19:04.538Z,535.0990
2019-04-10T00:19:12.815Z,532.8530
2019-04-10T00:19:20.463Z,530.8790
2019-04-10T00:19:28.707Z,531.3050
2019-04-10T00:19:36.449Z,529.5550
2019-04-10T00:19:45.525Z,530.5410
2019-04-10T00:19:54.034Z,530.4350
2019-04-10T00:20:02.461Z,529.8300
2019-04-10T00:20:10.462Z,527.8980
2019-04-10T00:20:18.492Z,528.0700
2019-04-10T00:20:26.727Z,527.3730
2019-04-10T00:20:34.452Z,525.7110
2019-04-10T00:20:41.451Z,525.5610
2019-04-10T00:20:49.086Z,524.5380
2019-04-10T00:20:58.573Z,523.5200
2019-04-10T00:21:07.097Z,525.7690
2019-04-10T00:21:15.549Z,525.1890
2019-04-10T00:21:23.447Z,523.6480
2019-04-10T00:21:31.496Z,523.2760
2019-04-10T00:21:39.705Z,525.9070
2019-04-10T00:21:47.333Z,528.6810
2019-04-10T00:21:55.666Z,532.4280
2019-04-10T00:22:04.252Z,533.9050
2019-04-10T00:22:12.463Z,536.2310
2019-04-10T00:22:20.447Z,538.7300
2019-04-10T00:22:28.521Z,541.8450
2019-04-10T00:22:36.419Z,546.1510
2019-04-10T00:22:44.549Z,549.4030
2019-04-10T00:22:53.289Z,552.9710
2019-04-10T00:23:02.569Z,556.8750
2019-04-10T00:23:10.954Z,559.5830
2019-04-10T00:23:19.445Z,562.0790
2019-04-10T00:23:28.250Z,560.7720
2019-04-10T00:23:37.331Z,559.9040
2019-04-10T00:23:47.082Z,558.6980
2019-04-10T00:23:55.632Z,554.8790
2019-04-10T00:24:03.875Z,553.1310
2019-04-10T00:24:11.549Z,549.3280
2019-04-10T00:24:18.429Z,546.6180
2019-04-10T00:24:26.476Z,545.2510
2019-04-10T00:24:34.459Z,546.6300
2019-04-10T00:24:42.432Z,548.3740
2019-04-10T00:24:50.508Z,548.7350
2019-04-10T00:24:58.446Z,547.6800
2019-04-10T00:25:06.528Z,546.6630
2019-04-10T00:25:14.923Z,545.4740
2019-04-10T00:25:22.460Z,544.7440
2019-04-10T00:25:34.714Z,543.4230
2019-04-10T00:25:43.420Z,542.4030
2019-04-10T00:25:51.464Z,540.3110
2019-04-10T00:26:01.347Z,538.8830
2019-04-10T00:26:09.928Z,538.8240
2019-04-10T00:26:17.481Z,539.4400
2019-04-10T00:26:25.747Z,539.3530
2019-04-10T00:26:34.041Z,539.7410
2019-04-10T00:26:42.435Z,538.5540
2019-04-10T00:26:50.467Z,539.1610
2019-04-10T00:26:58.548Z,537.3700
2019-04-10T00:27:06.449Z,534.8550
2019-04-10T00:27:17.148Z,533.7510
2019-04-10T00:27:26.259Z,535.3660
2019-04-10T00:27:34.689Z,536.7050
2019-04-10T00:27:43.095Z,540.8460
2019-04-10T00:27:51.442Z,544.0400
2019-04-10T00:27:59.428Z,544.5210
2019-04-10T00:28:08.154Z,543.5790
2019-04-10T00:28:17.457Z,538.4790
2019-04-10T00:28:26.274Z,536.2900
2019-04-10T00:28:34.435Z,533.9820
2019-04-10T00:28:43.605Z,530.6620
2019-04-10T00:28:51.912Z,526.6150
2019-04-10T00:29:00.228Z,523.0300
2019-04-10T00:29:08.427Z,518.0600
2019-04-10T00:29:16.144Z,515.9670
2019-04-10T00:29:24.581Z,515.7140
2019-04-10T00:29:32.437Z,515.5480
2019-04-10T00:29:40.495Z,515.7310
2019-04-10T00:29:48.764Z,518.4130
2019-04-10T00:29:56.543Z,521.6430
2019-04-10T00:30:04.803Z,524.0820
2019-04-10T00:30:13.179Z,526.5170
2019-04-10T00:30:21.444Z,528.9270
2019-04-10T00:30:31.450Z,531.0390
2019-04-10T00:30:39.444Z,533.0770
2019-04-10T00:30:47.558Z,534.8900
2019-04-10T00:30:55.644Z,539.3280
2019-04-10T00:31:03.453Z,542.4430
2019-04-10T00:31:11.621Z,544.2330
2019-04-10T00:31:19.938Z,544.0830
2019-04-10T00:31:27.562Z,543.0050
2019-04-10T00:31:35.442Z,543.6930
2019-04-10T00:31:44.453Z,544.3920
2019-04-10T00:31:52.446Z,544.8280
2019-04-10T00:32:02.176Z,545.6680
2019-04-10T00:32:10.467Z,546.0260
2019-04-10T00:32:19.316Z,546.4810
2019-04-10T00:32:27.903Z,545.0290
2019-04-10T00:32:36.240Z,544.7340
2019-04-10T00:32:44.584Z,544.4990
2019-04-10T00:32:54.347Z,542.9880
2019-04-10T00:33:03.267Z,543.1490
2019-04-10T00:33:12.285Z,544.0790
2019-04-10T00:33:20.809Z,544.4380
2019-04-10T00:33:29.092Z,545.1170
2019-04-10T00:33:37.454Z,545.8790
2019-04-10T00:33:47.475Z,546.1320
2019-04-10T00:33:58.987Z,547.5340
2019-04-10T00:34:07.469Z,546.6330
2019-04-10T00:34:15.664Z,546.4300
2019-04-10T00:34:23.420Z,546.4640
2019-04-10T00:34:31.867Z,546.1910
2019-04-10T00:34:40.035Z,547.9650
2019-04-10T00:34:48.449Z,548.2490
2019-04-10T00:34:56.413Z,548.7300
2019-04-10T00:35:04.546Z,549.1140
2019-04-10T00:35:12.915Z,549.2610
2019-04-10T00:35:21.454Z,550.2460
2019-04-10T00:35:30.391Z,549.5720
2019-04-10T00:35:39.384Z,548.3560
2019-04-10T00:35:47.746Z,547.7730
2019-04-10T00:35:56.049Z,547.6670
2019-04-10T00:36:04.462Z,547.9460
2019-04-10T00:36:12.456Z,548.7360
2019-04-10T00:36:20.317Z,549.6180
2019-04-10T00:36:28.878Z,549.2270
2019-04-10T00:36:37.385Z,548.8340
2019-04-10T00:36:45.655Z,548.3860
2019-04-10T00:36:54.359Z,548.3820
2019-04-10T00:37:03.782Z,548.3570
2019-04-10T00:37:21.818Z,548.0240
2019-04-10T00:37:29.543Z,545.6210
2019-04-10T00:37:38.435Z,543.7000
2019-04-10T00:37:46.465Z,542.8120
2019-04-10T00:37:55.445Z,543.1320
2019-04-10T00:38:03.464Z,543.7420
2019-04-10T00:38:12.249Z,544.1310
2019-04-10T00:38:20.473Z,545.3420
2019-04-10T00:38:34.448Z,545.8630
2019-04-10T00:38:42.122Z,546.6330
2019-04-10T00:38:50.562Z,546.2410
2019-04-10T00:38:58.012Z,547.8340
2019-04-10T00:39:06.523Z,550.8920
2019-04-10T00:39:14.689Z,552.8050
2019-04-10T00:39:22.438Z,554.0210
2019-04-10T00:39:30.680Z,553.3980
2019-04-10T00:39:39.478Z,552.3960
2019-04-10T00:39:47.464Z,552.4390
2019-04-10T00:39:55.438Z,551.5850
2019-04-10T00:40:03.433Z,551.1260
2019-04-10T00:40:11.470Z,551.0100
2019-04-10T00:40:19.422Z,548.7840
2019-04-10T00:40:27.709Z,548.3290
2019-04-10T00:40:35.440Z,549.1100
2019-04-10T00:40:44.475Z,548.9140
2019-04-10T00:40:52.450Z,549.5450
2019-04-10T00:41:00.450Z,550.5660
2019-04-10T00:41:08.474Z,552.8320
2019-04-10T00:41:17.240Z,553.8250
2019-04-10T00:41:25.444Z,553.6750
2019-04-10T00:41:34.235Z,552.8950
2019-04-10T00:41:44.202Z,552.6400
2019-04-10T00:41:52.638Z,552.9990
2019-04-10T00:42:00.871Z,553.9110
2019-04-10T00:42:09.272Z,553.8490
2019-04-10T00:42:17.478Z,554.6120
2019-04-10T00:42:26.074Z,555.2340
2019-04-10T00:42:35.148Z,554.5180
2019-04-10T00:42:43.494Z,552.3370
2019-04-10T00:42:51.671Z,549.9850
2019-04-10T00:43:00.284Z,549.1160
2019-04-10T00:43:08.724Z,547.4930
2019-04-10T00:43:17.031Z,546.9150
2019-04-10T00:43:26.608Z,544.7430
2019-04-10T00:43:35.035Z,543.7550
2019-04-10T00:43:43.546Z,543.1960
2019-04-10T00:43:51.462Z,541.7110
2019-04-10T00:43:59.452Z,540.4320
2019-04-10T00:44:07.794Z,539.8250
2019-04-10T00:44:15.432Z,539.9900
2019-04-10T00:44:23.736Z,540.6940
2019-04-10T00:44:31.994Z,542.1980
2019-04-10T00:44:40.438Z,542.7680
2019-04-10T00:44:48.450Z,543.2080
2019-04-10T00:44:56.485Z,542.5860
2019-04-10T00:45:04.431Z,542.6620
2019-04-10T00:45:13.272Z,542.9550
2019-04-10T00:45:21.670Z,543.9100
2019-04-10T00:45:29.473Z,544.5280
2019-04-10T00:45:37.693Z,543.7630
2019-04-10T00:45:45.978Z,542.8050
2019-04-10T00:45:54.619Z,543.5720
2019-04-10T00:46:02.430Z,544.7640
2019-04-10T00:46:10.438Z,545.6870
2019-04-10T00:46:17.867Z,544.4090
2019-04-10T00:46:26.282Z,543.6060
2019-04-10T00:46:34.695Z,542.2570
2019-04-10T00:46:42.450Z,540.9460
2019-04-10T00:46:50.677Z,541.7850
2019-04-10T00:46:59.008Z,540.9720
2019-04-10T00:47:06.630Z,540.8450
2019-04-10T00:47:14.897Z,541.3070
2019-04-10T00:47:23.261Z,543.2390
2019-04-10T00:47:31.435Z,548.3990
2019-04-10T00:47:39.421Z,551.9430
2019-04-10T00:47:47.738Z,550.8300
2019-04-10T00:47:55.239Z,551.7720
2019-04-10T00:48:03.688Z,551.9300
2019-04-10T00:48:11.961Z,552.1170
2019-04-10T00:48:20.452Z,553.0660
2019-04-10T00:48:28.459Z,549.1250
2019-04-10T00:48:36.450Z,549.4470
2019-04-10T00:48:44.422Z,547.9340
2019-04-10T00:48:52.452Z,547.4260
2019-04-10T00:49:00.647Z,547.9760
2019-04-10T00:49:09.279Z,549.8170
2019-04-10T00:49:17.666Z,549.2540
2019-04-10T00:49:26.007Z,551.4130
2019-04-10T00:49:33.547Z,549.4930
2019-04-10T00:49:41.941Z,546.1760
2019-04-10T00:49:50.480Z,541.5050
2019-04-10T00:49:58.438Z,538.7980
2019-04-10T00:50:06.511Z,536.5740
2019-04-10T00:50:14.676Z,536.9970
2019-04-10T00:50:22.440Z,534.6540
2019-04-10T00:50:31.069Z,535.5050
2019-04-10T00:50:42.488Z,535.2490
2019-04-10T00:50:50.888Z,533.7870
2019-04-10T00:50:59.246Z,530.4980
2019-04-10T00:51:07.450Z,529.8070
2019-04-10T00:51:17.215Z,530.1740
2019-04-10T00:51:25.621Z,531.8100
2019-04-10T00:51:33.430Z,532.6200
2019-04-10T00:51:41.660Z,534.3570
2019-04-10T00:51:52.266Z,534.7230
2019-04-10T00:52:00.450Z,534.1750
2019-04-10T00:52:08.630Z,535.6560
2019-04-10T00:52:16.428Z,536.8470
2019-04-10T00:52:24.104Z,538.1240
2019-04-10T00:52:32.464Z,541.1180
2019-04-10T00:52:41.262Z,544.3420
2019-04-10T00:52:49.466Z,546.8690
2019-04-10T00:52:56.742Z,546.5960
2019-04-10T00:53:05.086Z,544.9090
2019-04-10T00:53:13.437Z,544.9130
2019-04-10T00:53:21.436Z,545.5800
2019-04-10T00:53:29.558Z,544.7570
2019-04-10T00:53:37.468Z,544.7570
2019-04-10T00:53:46.260Z,544.9870
2019-04-10T00:53:54.427Z,544.4190
2019-04-10T00:54:02.554Z,544.6770
2019-04-10T00:54:10.443Z,545.0430
2019-04-10T00:54:18.443Z,547.2580
2019-04-10T00:54:26.454Z,551.4660
2019-04-10T00:54:35.097Z,554.7370
2019-04-10T00:54:44.281Z,557.0480
2019-04-10T00:54:52.465Z,558.0320
2019-04-10T00:55:01.450Z,558.5310
2019-04-10T00:55:09.414Z,556.8120
2019-04-10T00:55:17.583Z,554.7290
2019-04-10T00:55:25.817Z,553.2230
2019-04-10T00:55:33.439Z,553.6380
2019-04-10T00:55:44.062Z,553.8610
2019-04-10T00:55:52.440Z,553.6250
2019-04-10T00:56:00.453Z,551.6440
2019-04-10T00:56:08.487Z,549.6530
2019-04-10T00:56:16.632Z,550.5830
2019-04-10T00:56:24.455Z,551.9630
2019-04-10T00:56:32.554Z,550.9370
2019-04-10T00:56:41.818Z,550.5160
2019-04-10T00:56:49.442Z,551.8690
2019-04-10T00:56:59.074Z,551.3980
2019-04-10T00:57:07.437Z,552.8490
2019-04-10T00:57:15.420Z,553.4770
2019-04-10T00:57:23.609Z,554.4760
2019-04-10T00:57:31.662Z,554.5170
2019-04-10T00:57:41.182Z,553.7550
2019-04-10T00:57:49.791Z,549.5490
2019-04-10T00:57:58.180Z,547.6870
2019-04-10T00:58:06.450Z,546.2390
2019-04-10T00:58:14.483Z,545.8420
2019-04-10T00:58:22.582Z,544.9330
2019-04-10T00:58:30.424Z,544.4550
2019-04-10T00:58:39.466Z,546.6970
2019-04-10T00:58:47.921Z,549.6850
2019-04-10T00:58:55.504Z,549.5600
2019-04-10T00:59:03.799Z,548.3800
2019-04-10T00:59:12.198Z,547.1160
2019-04-10T00:59:20.480Z,546.2100
2019-04-10T00:59:28.441Z,546.4390
2019-04-10T00:59:36.633Z,546.7690
2019-04-10T00:59:44.463Z,544.9180
2019-04-10T00:59:52.532Z,544.4140
2019-04-10T01:00:00.942Z,545.2510
2019-04-10T01:00:09.827Z,546.4220
2019-04-10T01:00:17.455Z,547.3640
2019-04-10T01:00:25.582Z,546.6380
2019-04-10T01:00:36.288Z,546.8310
2019-04-10T01:00:45.422Z,545.5510
2019-04-10T01:00:53.437Z,547.6000
2019-04-10T01:01:01.457Z,548.5210
2019-04-10T01:01:09.701Z,547.4700
2019-04-10T01:01:17.459Z,547.3400
2019-04-10T01:01:25.647Z,549.0240
2019-04-10T01:01:34.043Z,547.8860
2019-04-10T01:01:43.626Z,548.4590
2019-04-10T01:01:52.120Z,549.2000
2019-04-10T01:02:00.475Z,547.2290
2019-04-10T01:02:08.448Z,549.0010
2019-04-10T01:02:16.537Z,552.5000
2019-04-10T01:02:25.108Z,552.9810
2019-04-10T01:02:34.329Z,553.1020
2019-04-10T01:02:42.950Z,552.2500
2019-04-10T01:02:51.281Z,552.4810
2019-04-10T01:02:59.483Z,552.0640
2019-04-10T01:03:07.445Z,552.7820
2019-04-10T01:03:15.697Z,554.6470
2019-04-10T01:03:23.593Z,556.1970
2019-04-10T01:03:48.115Z,555.1380
2019-04-10T01:03:56.515Z,554.0920
2019-04-10T01:04:04.424Z,553.5300
2019-04-10T01:04:12.450Z,552.8410
2019-04-10T01:04:20.442Z,552.8180
2019-04-10T01:04:28.677Z,553.4890
2019-04-10T01:04:36.451Z,553.5430
2019-04-10T01:04:44.703Z,554.0710
2019-04-10T01:04:53.284Z,554.4770
2019-04-10T01:05:02.767Z,557.7010
2019-04-10T01:05:11.452Z,558.7220
2019-04-10T01:05:19.444Z,560.4400
2019-04-10T01:05:27.455Z,561.3440
2019-04-10T01:05:35.599Z,562.8410
2019-04-10T01:05:43.757Z,562.3820
2019-04-10T01:05:51.432Z,560.6220
2019-04-10T01:05:59.678Z,558.4360
2019-04-10T01:06:08.076Z,559.2930
2019-04-10T01:06:16.424Z,562.5450
2019-04-10T01:06:24.447Z,567.2020
2019-04-10T01:06:32.434Z,570.3150
2019-04-10T01:06:40.448Z,570.0750
2019-04-10T01:06:50.455Z,570.4720
2019-04-10T01:06:58.441Z,570.1840
2019-04-10T01:07:07.218Z,569.9260
2019-04-10T01:07:16.849Z,570.6160
2019-04-10T01:07:35.670Z,571.9670
2019-04-10T01:07:41.137Z,567.7390
2019-04-10T01:07:51.894Z,564.0210
2019-04-10T01:08:00.441Z,563.0950
2019-04-10T01:08:08.694Z,563.6680
2019-04-10T01:08:16.441Z,564.2970
2019-04-10T01:08:24.549Z,565.0860
2019-04-10T01:08:33.441Z,564.9370
2019-04-10T01:08:42.633Z,561.0860
2019-04-10T01:08:49.551Z,558.5640
2019-04-10T01:08:57.450Z,560.0040
2019-04-10T01:09:05.437Z,563.9620
2019-04-10T01:09:13.453Z,567.1880
2019-04-10T01:09:21.546Z,565.2880
2019-04-10T01:09:29.443Z,562.1950
2019-04-10T01:09:37.556Z,562.1720
2019-04-10T01:09:45.835Z,561.4760
2019-04-10T01:09:53.496Z,560.5780
2019-04-10T01:10:02.084Z,554.9170
2019-04-10T01:10:10.464Z,551.7190
2019-04-10T01:10:18.451Z,553.6810
2019-04-10T01:10:26.456Z,552.1490
2019-04-10T01:10:34.590Z,551.4100
2019-04-10T01:10:44.239Z,551.1240
2019-04-10T01:10:53.163Z,551.8930
2019-04-10T01:11:01.442Z,550.7620
2019-04-10T01:11:10.597Z,547.4430
2019-04-10T01:11:19.003Z,545.9770
2019-04-10T01:11:27.388Z,546.3200
2019-04-10T01:11:36.102Z,546.2500
2019-04-10T01:11:45.456Z,547.4730
2019-04-10T01:11:53.263Z,546.9030
2019-04-10T01:12:01.537Z,544.6320
2019-04-10T01:12:09.855Z,542.0130
2019-04-10T01:12:17.444Z,541.8160
2019-04-10T01:12:25.442Z,542.7590
2019-04-10T01:12:34.269Z,543.2200
2019-04-10T01:12:42.547Z,544.8990
2019-04-10T01:12:50.460Z,546.6810
2019-04-10T01:12:58.747Z,544.3800
2019-04-10T01:13:08.275Z,542.8090
2019-04-10T01:13:16.746Z,543.1010
2019-04-10T01:13:25.027Z,543.8340
2019-04-10T01:13:33.443Z,544.5170
2019-04-10T01:13:41.432Z,545.4370
2019-04-10T01:13:50.740Z,546.1650
2019-04-10T01:13:59.432Z,546.4390
2019-04-10T01:14:07.580Z,549.4270
2019-04-10T01:14:15.847Z,552.0320
2019-04-10T01:14:23.360Z,553.7630
2019-04-10T01:14:31.821Z,555.2500
2019-04-10T01:14:42.276Z,555.9710
2019-04-10T01:14:50.451Z,558.1680
2019-04-10T01:14:58.461Z,557.0660
2019-04-10T01:15:06.703Z,556.3850
2019-04-10T01:15:14.439Z,556.3540
2019-04-10T01:15:22.620Z,553.9320
2019-04-10T01:15:30.852Z,552.1920
2019-04-10T01:15:38.623Z,549.7500
2019-04-10T01:15:46.878Z,547.4770
2019-04-10T01:15:55.177Z,545.2490
2019-04-10T01:16:03.447Z,544.7940
2019-04-10T01:16:11.458Z,544.9600
2019-04-10T01:16:19.600Z,546.9670
2019-04-10T01:16:27.441Z,548.0490
2019-04-10T01:16:35.597Z,548.1970
2019-04-10T01:16:43.973Z,548.0990
2019-04-10T01:16:52.598Z,548.3170
2019-04-10T01:17:00.453Z,546.4130
2019-04-10T01:17:08.465Z,543.0850
2019-04-10T01:17:16.449Z,541.3140
2019-04-10T01:17:24.455Z,542.7770
2019-04-10T01:17:32.666Z,544.3450
2019-04-10T01:17:40.445Z,547.2450
2019-04-10T01:17:48.628Z,550.0830
2019-04-10T01:17:56.967Z,551.3410
2019-04-10T01:18:05.462Z,550.4420
2019-04-10T01:18:13.425Z,549.8010
2019-04-10T01:18:21.465Z,547.8950
2019-04-10T01:18:29.427Z,548.2620
2019-04-10T01:18:37.495Z,547.2050
2019-04-10T01:18:45.710Z,547.1530
2019-04-10T01:18:53.431Z,548.3060
2019-04-10T01:19:01.732Z,549.5320
2019-04-10T01:19:09.988Z,548.2060
2019-04-10T01:19:19.572Z,546.5440
2019-04-10T01:19:28.099Z,546.3770
2019-04-10T01:19:36.454Z,547.5350
2019-04-10T01:19:44.434Z,545.1060
2019-04-10T01:19:52.275Z,542.8200
2019-04-10T01:20:00.658Z,542.5360
2019-04-10T01:20:09.149Z,541.1490
2019-04-10T01:20:17.663Z,542.2320
2019-04-10T01:20:25.830Z,541.4770
2019-04-10T01:20:34.279Z,540.6860
2019-04-10T01:20:42.471Z,538.1940
2019-04-10T01:20:50.442Z,535.2720
2019-04-10T01:20:58.470Z,533.2950
2019-04-10T01:21:06.436Z,531.2510
2019-04-10T01:21:15.292Z,530.9880
2019-04-10T01:21:23.470Z,531.9640
2019-04-10T01:21:32.515Z,531.3650
2019-04-10T01:21:40.456Z,530.9960
2019-04-10T01:21:48.596Z,532.7170
2019-04-10T01:21:56.978Z,534.9880
2019-04-10T01:22:04.441Z,535.8110
2019-04-10T01:22:12.443Z,534.4690
2019-04-10T01:22:21.241Z,534.2760
2019-04-10T01:22:29.574Z,534.1810
2019-04-10T01:22:37.581Z,534.5730
2019-04-10T01:22:45.591Z,536.2560
2019-04-10T01:22:53.465Z,539.3540
2019-04-10T01:23:01.501Z,539.2020
2019-04-10T01:23:09.867Z,540.5790
2019-04-10T01:23:17.464Z,540.9170
2019-04-10T01:23:25.452Z,542.7740
2019-04-10T01:23:33.477Z,541.9460
2019-04-10T01:23:41.490Z,539.1340
2019-04-10T01:23:49.457Z,540.0480
2019-04-10T01:23:57.472Z,539.5570
2019-04-10T01:24:05.733Z,532.8220
2019-04-10T01:24:13.525Z,529.7210
2019-04-10T01:24:21.685Z,528.0010
2019-04-10T01:24:30.022Z,524.3380
2019-04-10T01:24:39.261Z,523.2320
2019-04-10T01:24:48.049Z,523.0800
2019-04-10T01:24:56.442Z,523.8870
2019-04-10T01:25:04.444Z,527.3250
2019-04-10T01:25:12.471Z,527.7170
2019-04-10T01:25:20.436Z,527.8490
2019-04-10T01:25:28.445Z,529.9940
2019-04-10T01:25:36.748Z,532.7880
2019-04-10T01:25:48.338Z,536.5470
2019-04-10T01:25:56.862Z,544.4840
2019-04-10T01:26:05.185Z,546.2130
2019-04-10T01:26:13.845Z,548.5200
2019-04-10T01:26:23.371Z,550.7710
2019-04-10T01:26:34.985Z,553.0320
2019-04-10T01:26:43.443Z,555.6740
2019-04-10T01:26:51.739Z,557.9120
2019-04-10T01:26:59.467Z,556.2720
2019-04-10T01:27:07.691Z,553.9190
2019-04-10T01:27:15.987Z,552.5100
2019-04-10T01:27:24.441Z,552.8490
2019-04-10T01:27:32.455Z,555.0620
2019-04-10T01:27:41.147Z,554.9610
2019-04-10T01:27:50.057Z,551.7890
2019-04-10T01:27:58.469Z,546.8630
2019-04-10T01:28:06.792Z,545.3210
2019-04-10T01:28:14.437Z,545.9010
2019-04-10T01:28:22.704Z,547.6300
2019-04-10T01:28:31.075Z,548.7660
2019-04-10T01:28:40.839Z,545.4090
2019-04-10T01:28:49.184Z,543.5920
2019-04-10T01:28:57.545Z,540.3300
2019-04-10T01:29:05.459Z,540.5220
2019-04-10T01:29:13.463Z,539.4430
2019-04-10T01:29:25.155Z,538.3090
2019-04-10T01:29:33.641Z,538.9520
2019-04-10T01:29:41.899Z,536.8320
2019-04-10T01:29:49.391Z,536.9990
2019-04-10T01:29:57.972Z,535.2110
2019-04-10T01:30:07.215Z,537.4990
2019-04-10T01:30:15.914Z,539.1560
2019-04-10T01:30:24.439Z,538.0510
2019-04-10T01:30:32.780Z,537.5980
2019-04-10T01:30:40.474Z,538.5170
2019-04-10T01:30:49.241Z,537.7580
2019-04-10T01:30:59.079Z,540.4870
2019-04-10T01:31:08.733Z,541.4140
2019-04-10T01:31:17.134Z,542.4930
2019-04-10T01:31:26.826Z,542.0780
2019-04-10T01:31:35.276Z,542.5410
2019-04-10T01:31:43.433Z,539.8100
2019-04-10T01:31:51.468Z,538.1060
2019-04-10T01:32:02.053Z,535.9910
2019-04-10T01:32:10.450Z,534.2510
2019-04-10T01:32:19.274Z,534.3140
2019-04-10T01:32:27.931Z,532.0500
2019-04-10T01:32:36.482Z,531.1070
2019-04-10T01:32:44.448Z,530.9290
2019-04-10T01:32:52.458Z,532.1390
2019-04-10T01:33:00.692Z,531.8730
2019-04-10T01:33:08.446Z,533.6570
2019-04-10T01:33:16.607Z,534.9420
2019-04-10T01:33:24.931Z,537.3450
2019-04-10T01:33:33.596Z,534.1640
2019-04-10T01:33:41.427Z,535.0690
2019-04-10T01:33:49.486Z,533.9450
2019-04-10T01:33:57.466Z,532.6640
2019-04-10T01:34:05.437Z,531.6200
2019-04-10T01:34:13.512Z,530.0060
2019-04-10T01:34:21.454Z,530.7530
2019-04-10T01:34:29.565Z,530.1720
2019-04-10T01:34:38.404Z,531.4020
2019-04-10T01:34:46.548Z,530.9120
2019-04-10T01:34:54.446Z,530.2540
2019-04-10T01:35:02.559Z,531.9310
2019-04-10T01:35:10.452Z,534.2730
2019-04-10T01:35:22.363Z,536.0590
2019-04-10T01:35:30.444Z,535.7440
2019-04-10T01:35:40.433Z,535.3760
2019-04-10T01:35:49.284Z,533.6460
2019-04-10T01:35:58.281Z,531.7890
2019-04-10T01:36:06.919Z,529.5060
2019-04-10T01:36:15.438Z,529.4880
2019-04-10T01:36:23.456Z,530.9730
2019-04-10T01:36:31.481Z,532.4210
2019-04-10T01:36:39.394Z,532.5060
2019-04-10T01:36:50.531Z,533.0290
2019-04-10T01:36:59.257Z,532.6240
2019-04-10T01:37:08.326Z,532.3890
2019-04-10T01:37:16.631Z,531.3670
2019-04-10T01:37:24.851Z,531.6600
2019-04-10T01:37:46.042Z,534.0470
2019-04-10T01:37:52.068Z,531.9600
2019-04-10T01:38:02.416Z,532.9180
2019-04-10T01:38:13.408Z,529.2000
2019-04-10T01:38:21.823Z,526.8600
2019-04-10T01:38:29.473Z,525.3230
2019-04-10T01:38:36.456Z,524.7620
2019-04-10T01:38:44.436Z,524.8800
2019-04-10T01:38:53.650Z,525.0440
2019-04-10T01:39:02.139Z,526.9060
2019-04-10T01:39:10.545Z,531.0790
2019-04-10T01:39:18.448Z,533.2070